Latest Weather Observations for Rockhampton

IDQ60801

Issued at 7:02 pm EST Monday 31 August 2015 (issued every 30 minutes, with the page automatically refreshed every 10 minutes)

About weather observations | Map of weather stations | Latest weather observations for QLD | Other Formats
Station Details ID: 039083 Name: ROCKHAMPTON AERO Lat: -23.38 Lon: 150.48 Height: 10.4 m
Data from the previous 72 hours. | See also: Recent months at Rockhampton
Date/Time
EST
Temp
°C
App
Temp
°C
Dew
Point
Rel
Hum
%
Delta-T
°C
Wind Press
QNH
hPa
Press
MSL
hPa
Rain
since 9 am
mm
Dir
 
Spd
km/h
Gust
km/h
Spd
kts
Gust
kts
31/06:30pm 20.8 17.4 2.0 28 8.7 S 9 13 5 7 1015.4 1015.4 0.0
31/06:00pm 21.6 18.2 2.1 27 9.1 S 9 13 5 7 1015.0 1015.0 0.0
31/05:30pm 22.9 18.2 0.6 23 10.2 SW 15 20 8 11 1014.8 1014.8 0.0
31/05:00pm 24.0 18.3 -0.6 19 11.1 WSW 19 28 10 15 1014.4 1014.4 0.0
31/04:30pm 24.4 17.6 -1.8 17 11.6 SW 24 32 13 17 1014.2 1014.2 0.0
31/04:00pm 24.7 17.5 -2.4 16 11.9 SW 26 35 14 19 1014.0 1014.0 0.0
31/03:30pm 25.1 18.0 -1.4 17 11.9 WSW 26 33 14 18 1013.7 1013.7 0.0
31/03:00pm 24.8 18.1 -1.3 18 11.7 WSW 24 32 13 17 1014.1 1014.1 0.0
31/02:30pm 25.6 19.3 -0.7 17 12.0 WSW 22 41 12 22 1014.4 1014.4 0.0
31/02:00pm 24.4 17.5 0.3 20 11.1 WSW 26 33 14 18 1014.9 1014.9 0.0
31/01:30pm 24.3 18.3 0.8 21 10.9 WSW 22 32 12 17 1015.3 1015.3 0.0
31/01:00pm 23.8 18.5 2.0 24 10.3 SW 19 28 10 15 1016.0 1016.0 0.0
31/12:30pm 24.2 19.1 1.0 21 10.8 WSW 17 32 9 17 1016.3 1016.3 0.0
31/12:00pm 23.5 19.3 1.4 23 10.3 SSW 13 30 7 16 1016.9 1016.9 0.0
31/11:30am 21.7 16.7 1.5 26 9.3 SW 17 30 9 16 1017.4 1017.4 0.0
31/11:00am 21.5 16.5 1.1 26 9.3 SSW 17 28 9 15 1017.8 1017.8 0.0
31/10:30am 21.0 17.1 3.6 32 8.3 S 13 20 7 11 1018.4 1018.4 0.0
31/10:00am 20.5 18.0 4.6 35 7.7 SE 7 11 4 6 1018.9 1018.9 0.0
31/09:30am 19.8 18.6 6.6 42 6.6 S 2 6 1 3 1019.3 1019.3 0.0
31/09:00am 18.6 18.0 7.5 48 5.6 CALM 0 0 0 0 1019.2 1019.2 0.0
31/08:30am 17.0 16.1 7.6 54 4.7 W 2 7 1 4 1019.0 1019.0 0.0
31/08:00am 14.9 13.5 9.0 68 3.0 SW 6 7 3 4 1018.7 1018.7 0.0
31/07:30am 13.3 13.1 8.9 74 2.2 CALM 0 4 0 2 1018.4 1018.4 0.0
31/07:00am 11.9 10.3 8.2 78 1.8 S 6 7 3 4 1017.9 1017.9 0.0
31/06:30am 10.0 9.5 7.9 87 1.0 CALM 0 0 0 0 1017.5 1017.5 0.0
31/06:00am 10.3 9.9 8.2 87 1.0 CALM 0 0 0 0 1017.2 1017.2 0.0
31/05:30am 11.4 9.8 7.9 79 1.7 SSW 6 9 3 5 1016.9 1016.9 0.0
31/05:00am 10.3 10.0 8.5 89 0.9 CALM 0 0 0 0 1016.6 1016.6 0.0
31/04:30am 11.1 10.6 8.0 81 1.5 CALM 0 0 0 0 1016.4 1016.4 0.0
31/04:00am 12.3 10.0 7.3 71 2.4 SW 9 11 5 6 1016.2 1016.2 0.0
31/03:30am 12.4 10.5 7.5 72 2.4 SSW 7 7 4 4 1016.5 1016.5 0.0
31/03:00am 12.7 11.8 7.6 71 2.5 S 2 7 1 4 1016.7 1016.7 0.0
31/02:30am 12.9 11.8 8.5 74 2.2 S 4 7 2 4 1016.8 1016.8 0.0
31/02:00am 12.8 11.4 9.0 78 1.9 SSE 6 7 3 4 1016.8 1016.8 0.0
31/01:30am 13.3 12.4 9.1 76 2.1 S 4 6 2 3 1017.1 1017.1 0.0
31/01:00am 14.9 13.5 8.8 67 3.1 SSW 6 7 3 4 1017.2 1017.2 0.0
31/12:30am 14.1 14.1 9.8 75 2.2 CALM 0 0 0 0 1017.2 1017.2 0.0
31/12:00am 16.6 14.8 8.1 57 4.3 S 7 9 4 5 1017.1 1017.1 0.0
 
Date/Time
EST
Temp
°C
App
Temp
°C
Dew
Point
Rel
Hum
%
Delta-T
°C
Wind Press
QNH
hPa
Press
MSL
hPa
Rain
since 9 am
mm
Dir
 
Spd
km/h
Gust
km/h
Spd
kts
Gust
kts
30/11:30pm 16.3 14.8 9.1 62 3.7 S 7 9 4 5 1017.1 1017.1 0.0
30/11:00pm 17.2 15.9 9.1 59 4.2 S 6 9 3 5 1017.1 1017.1 0.0
30/10:30pm 16.7 15.8 10.7 67 3.2 S 6 7 3 4 1017.2 1017.2 0.0
30/10:00pm 18.0 16.5 10.5 61 4.0 S 9 11 5 6 1017.2 1017.2 0.0
30/09:30pm 18.1 17.8 11.3 64 3.7 SSE 4 9 2 5 1017.1 1017.1 0.0
30/09:00pm 18.7 19.1 11.4 62 4.0 CALM 0 0 0 0 1017.0 1017.0 0.0
30/08:30pm 19.6 18.3 11.2 58 4.6 SSE 9 11 5 6 1016.7 1016.7 0.0
30/08:00pm 20.1 19.0 11.8 59 4.6 S 9 11 5 6 1016.4 1016.4 0.0
30/07:30pm 20.7 19.8 12.5 59 4.6 S 9 11 5 6 1016.1 1016.1 0.0
30/07:00pm 20.3 20.4 13.9 66 3.7 SSE 6 9 3 5 1015.7 1015.7 0.0
30/06:30pm 20.1 21.2 13.6 66 3.7 CALM 0 0 0 0 1015.5 1015.5 0.0
30/06:00pm 21.3 22.3 13.1 59 4.7 CALM 0 0 0 0 1015.1 1015.1 0.0
30/05:30pm 22.8 22.2 11.8 50 6.2 SSW 6 9 3 5 1014.8 1014.8 0.0
30/05:00pm 23.3 22.0 11.3 46 6.7 SW 9 13 5 7 1014.6 1014.6 0.0
30/04:30pm 23.8 20.9 11.1 44 7.1 WSW 17 22 9 12 1014.5 1014.5 0.0
30/04:00pm 24.1 22.2 11.9 46 6.9 WSW 13 17 7 9 1014.5 1014.5 0.0
30/03:30pm 24.1 21.0 11.7 45 7.0 WSW 19 24 10 13 1014.8 1014.8 0.0
30/03:00pm 24.4 22.8 12.8 48 6.7 WSW 13 22 7 12 1014.9 1014.9 0.0
30/02:30pm 23.3 22.7 12.4 50 6.2 WSW 7 20 4 11 1015.2 1015.2 0.0
30/02:00pm 23.0 22.7 14.3 58 5.1 SW 9 17 5 9 1015.5 1015.5 0.0
30/01:30pm 22.8 22.4 14.1 58 5.1 SW 9 17 5 9 1015.9 1015.9 0.0
30/01:00pm 21.7 20.6 14.3 62 4.3 W 13 17 7 9 1016.5 1016.5 0.0
30/12:30pm 21.6 21.4 14.8 65 4.0 WSW 9 15 5 8 1016.8 1016.8 0.0
30/12:00pm 20.6 19.8 15.0 70 3.3 W 13 17 7 9 1017.5 1017.5 0.0
30/11:30am 20.2 19.8 15.3 73 2.9 WSW 11 17 6 9 1018.1 1018.1 0.0
30/11:00am 20.3 18.8 15.4 73 2.9 WSW 17 20 9 11 1018.3 1018.3 0.0
30/10:30am 19.5 18.2 15.8 79 2.2 SSW 17 24 9 13 1018.5 1018.5 0.0
30/10:00am 18.3 16.5 15.9 86 1.4 SSW 20 26 11 14 1018.7 1018.7 0.0
30/09:30am 19.1 17.8 16.8 86 1.4 SW 19 22 10 12 1018.9 1018.9 0.0
30/09:00am 18.7 17.9 17.2 91 0.9 WSW 17 20 9 11 1018.9 1018.9 5.4
30/08:30am 18.7 17.9 17.0 90 1.0 SW 17 20 9 11 1018.6 1018.6 5.4
30/08:00am 18.6 19.6 16.9 90 1.0 SSW 7 13 4 7 1018.1 1018.1 5.4
30/07:30am 18.0 19.9 16.8 93 0.7 S 2 7 1 4 1017.8 1017.8 5.4
30/07:00am 17.5 18.4 16.7 95 0.5 ENE 7 11 4 6 1017.9 1017.9 5.4
30/06:30am 17.5 18.1 16.8 96 0.4 ESE 9 13 5 7 1017.5 1017.5 5.2
30/06:00am 17.5 18.5 16.8 96 0.4 SSW 7 9 4 5 1017.8 1017.8 3.6
30/05:30am 17.7 18.4 17.0 96 0.4 S 9 11 5 6 1017.1 1017.1 3.4
30/05:00am 17.7 18.3 16.7 94 0.6 SE 9 13 5 7 1016.9 1016.9 2.6
30/04:30am 17.8 18.8 16.8 94 0.6 SSE 7 11 4 6 1017.1 1017.1 2.4
30/04:10am 17.8 18.5 17.0 95 0.5 SE 9 13 5 7 1016.8 1016.8 2.4
30/04:00am 17.8 18.9 17.0 95 0.5 SE 7 9 4 5 1016.8 1016.8 2.4
30/03:54am 17.8 18.9 17.0 95 0.5 SSE 7 9 4 5 1016.7 1016.7 2.4
30/03:30am 17.8 18.4 16.8 94 0.6 SE 9 13 5 7 1016.8 1016.8 2.4
30/03:00am 17.8 18.9 17.0 95 0.5 S 7 11 4 6 1017.2 1017.2 2.4
30/02:30am 17.7 18.8 17.0 96 0.4 SSW 7 11 4 6 1017.4 1017.4 2.4
30/02:00am 17.6 18.5 16.6 94 0.6 E 7 11 4 6 1017.2 1017.2 2.4
30/01:30am 17.7 18.6 16.5 93 0.7 SSE 7 9 4 5 1017.7 1017.7 2.2
30/01:09am 17.7 18.7 16.4 92 0.8 SSE 6 9 3 5 1018.1 1018.1 2.0
30/01:00am 17.6 18.0 16.4 93 0.7 SSW 9 11 5 6 1018.5 1018.5 1.8
30/12:50am 17.6 17.7 16.4 93 0.7 SW 11 13 6 7 1018.7 1018.7 1.8
30/12:30am 17.7 18.1 16.4 92 0.8 SW 9 11 5 6 1018.8 1018.8 1.6
30/12:00am 17.4 18.1 16.2 93 0.7 SSW 7 11 4 6 1019.0 1019.0 1.6
 
Date/Time
EST
Temp
°C
App
Temp
°C
Dew
Point
Rel
Hum
%
Delta-T
°C
Wind Press
QNH
hPa
Press
MSL
hPa
Rain
since 9 am
mm
Dir
 
Spd
km/h
Gust
km/h
Spd
kts
Gust
kts
29/11:30pm 17.4 18.1 16.0 91 0.8 SSW 7 9 4 5 1019.2 1019.2 1.6
29/11:29pm 17.4 18.1 16.0 91 0.8 SSW 7 9 4 5 1019.2 1019.2 1.6
29/11:00pm 17.1 17.5 16.3 95 0.5 W 9 15 5 8 1018.8 1018.8 1.6
29/10:30pm 17.5 19.7 16.5 94 0.6 CALM 0 7 0 4 1018.5 1018.5 1.6
29/10:00pm 17.2 17.2 16.2 94 0.6 SSW 11 15 6 8 1018.9 1018.9 1.6
29/09:30pm 17.5 16.0 16.3 93 0.7 WSW 19 24 10 13 1019.5 1019.5 1.4
29/09:00pm 20.8 21.1 17.9 83 1.8 NNW 13 35 7 19 1019.1 1019.1 1.4
29/08:30pm 21.5 23.0 18.1 81 2.1 NW 7 9 4 5 1018.7 1018.7 1.4
29/08:00pm 21.5 22.1 17.8 79 2.3 NE 11 17 6 9 1017.8 1017.8 1.4
29/07:30pm 21.4 21.3 17.8 80 2.2 NE 15 17 8 9 1017.4 1017.4 1.4
29/07:00pm 21.7 20.4 17.3 76 2.7 NE 20 28 11 15 1017.0 1017.0 1.4
29/06:30pm 22.2 21.6 16.6 70 3.4 NNE 15 22 8 12 1017.0 1017.0 1.4
29/06:00pm 22.2 21.1 17.3 74 3.0 NE 19 24 10 13 1016.7 1016.7 1.4
29/05:30pm 22.8 21.9 16.9 69 3.6 NE 17 22 9 12 1016.6 1016.6 1.4
29/05:00pm 24.0 22.3 16.3 62 4.7 NNE 20 28 11 15 1016.3 1016.3 1.4
29/04:30pm 24.9 23.6 16.8 60 5.0 NE 19 26 10 14 1016.1 1016.1 1.4
29/04:00pm 24.9 23.9 16.6 60 5.1 NE 17 22 9 12 1016.2 1016.2 1.4
29/03:30pm 25.1 24.1 16.5 59 5.3 NE 17 22 9 12 1016.2 1016.2 1.4
29/03:00pm 25.0 25.6 17.6 63 4.6 ESE 11 15 6 8 1016.4 1016.4 1.4
29/02:30pm 24.5 26.0 18.8 70 3.6 SE 9 13 5 7 1016.9 1016.9 1.4
29/02:17pm 23.9 25.1 18.3 71 3.5 NE 9 13 5 7 1017.3 1017.3 1.0
29/02:00pm 24.9 25.1 16.8 60 5.0 ESE 11 13 6 7 1017.5 1017.5 0.0
29/01:30pm 25.2 24.1 16.4 58 5.4 E 17 22 9 12 1018.0 1018.0 0.0
29/01:00pm 26.5 27.1 15.9 52 6.5 NE 7 19 4 10 1018.4 1018.4 0.0
29/12:30pm 25.3 25.7 16.3 57 5.5 NE 9 17 5 9 1019.0 1019.0 0.0
29/12:00pm 25.1 25.9 16.3 58 5.4 SE 7 13 4 7 1019.6 1019.6 0.0
29/11:30am 26.2 27.8 16.8 56 5.8 SSW 4 11 2 6 1020.2 1020.2 0.0
29/11:00am 24.7 25.8 16.7 61 4.9 WNW 6 11 3 6 1020.7 1020.7 0.0
29/10:30am 23.7 24.7 16.8 65 4.2 NNE 7 11 4 6 1021.1 1021.1 0.0
29/10:00am 23.3 24.4 17.1 68 3.8 SE 7 13 4 7 1021.4 1021.4 0.0
29/09:30am 22.4 22.9 17.4 73 3.1 ESE 11 17 6 9 1021.7 1021.7 0.0
29/09:00am 22.3 24.0 18.6 79 2.3 S 7 11 4 6 1021.6 1021.6 0.8
29/08:30am 20.5 22.2 18.6 89 1.2 SSE 7 11 4 6 1021.4 1021.4 0.8
29/08:00am 19.0 20.6 17.9 93 0.7 SE 6 11 3 6 1020.9 1020.9 0.8
29/07:30am 18.6 20.2 17.8 95 0.5 SE 6 9 3 5 1020.6 1020.6 0.8
29/07:00am 17.5 18.6 17.0 97 0.3 S 7 9 4 5 1020.5 1020.5 0.8
29/06:40am 17.0 17.9 16.7 98 0.2 S 7 9 4 5 1020.3 1020.3 0.8
29/06:30am 16.8 17.7 16.5 98 0.2 SSW 7 11 4 6 1020.3 1020.3 0.8
29/06:22am 16.5 16.5 16.3 99 0.1 SW 11 13 6 7 1020.4 1020.4 0.8
29/06:00am 16.2 18.2 15.9 98 0.2 CALM 0 0 0 0 1020.1 1020.1 0.8
29/05:49am 16.4 18.4 16.1 98 0.2 CALM 0 0 0 0 1019.9 - -
29/05:30am 15.9 17.7 15.6 98 0.2 CALM 0 6 0 3 1019.6 1019.6 0.8
29/05:00am 16.5 17.5 16.3 99 0.1 SW 6 7 3 4 1019.5 1019.5 0.8
29/04:51am 16.7 18.1 16.4 98 0.2 WSW 4 7 2 4 1019.5 1019.5 0.8
29/04:30am 17.0 19.3 16.8 99 0.1 CALM 0 0 0 0 1019.3 1019.3 0.8
29/04:16am 17.2 19.6 16.9 98 0.2 CALM 0 0 0 0 1019.3 1019.3 0.8
29/04:00am 17.5 19.9 17.0 97 0.3 CALM 0 0 0 0 1019.4 1019.4 0.8
29/03:46am 17.4 19.8 16.9 97 0.3 CALM 0 4 0 2 1019.4 1019.4 0.8
29/03:35am 17.3 19.2 16.6 96 0.4 SW 2 7 1 4 1019.6 1019.6 0.8
29/03:30am 17.4 19.3 16.7 96 0.4 SSW 2 7 1 4 1019.7 1019.7 0.8
29/03:00am 18.1 19.5 17.3 95 0.5 S 6 9 3 5 1019.8 1019.8 0.8
29/02:30am 17.9 20.4 17.2 96 0.4 CALM 0 0 0 0 1019.9 1019.9 0.8
29/02:00am 18.0 20.5 17.3 96 0.4 CALM 0 6 0 3 1020.0 1020.0 0.8
29/01:30am 17.6 20.1 17.3 98 0.2 CALM 0 6 0 3 1020.1 1020.1 0.8
29/01:00am 17.6 18.6 16.9 96 0.4 SSW 7 9 4 5 1020.4 1020.4 0.8
29/12:30am 18.4 20.9 17.2 93 0.7 CALM 0 0 0 0 1020.3 1020.3 0.8
29/12:00am 18.3 20.9 17.5 95 0.5 CALM 0 0 0 0 1020.2 1020.2 0.8
 
Date/Time
EST
Temp
°C
App
Temp
°C
Dew
Point
Rel
Hum
%
Delta-T
°C
Wind Press
QNH
hPa
Press
MSL
hPa
Rain
since 9 am
mm
Dir
 
Spd
km/h
Gust
km/h
Spd
kts
Gust
kts
28/11:30pm 17.9 20.4 17.2 96 0.4 CALM 0 0 0 0 1020.4 1020.4 0.8
28/11:00pm 18.8 21.5 17.7 93 0.7 CALM 0 7 0 4 1020.4 1020.4 0.8
28/10:30pm 19.5 21.7 17.4 88 1.3 SSE 2 7 1 4 1020.7 1020.7 0.8
28/10:00pm 19.5 22.2 17.7 89 1.1 CALM 0 0 0 0 1020.7 1020.7 0.8
28/09:30pm 19.8 21.6 17.3 85 1.5 SW 4 7 2 4 1020.7 1020.7 0.4
28/09:23pm 19.9 21.3 17.3 85 1.6 SSW 6 9 3 5 1020.7 1020.7 0.4
28/09:13pm 20.3 21.6 17.2 82 1.9 S 6 9 3 5 1020.6 1020.6 0.2
28/09:00pm 20.4 21.9 15.7 74 2.8 SSW 2 7 1 4 1020.5 1020.5 0.0
28/08:30pm 20.6 21.2 15.7 73 2.9 SW 7 9 4 5 1020.4 1020.4 0.0
28/08:00pm 20.4 21.1 15.7 74 2.8 SW 6 11 3 6 1019.9 1019.9 0.0
28/07:30pm 21.1 22.3 15.0 68 3.6 ENE 2 9 1 5 1019.3 1019.3 0.0

Other Formats:

Comma delimited format used in spreadsheet applications
http://www.bom.gov.au/fwo/IDQ60801/IDQ60801.94374.axf

JavaScript Object Notation format (JSON) in row-major order
http://www.bom.gov.au/fwo/IDQ60801/IDQ60801.94374.json